createdAt,value
2024-01-10T00:01:55.761Z,-6.53
2024-01-10T00:04:25.678Z,-6.51
2024-01-10T00:06:55.494Z,-6.50
2024-01-10T00:09:25.589Z,-6.48
2024-01-10T00:12:00.908Z,-6.48
2024-01-10T00:14:30.753Z,-6.48
2024-01-10T00:17:00.691Z,-6.45
2024-01-10T00:19:30.521Z,-6.41
2024-01-10T00:22:00.329Z,-6.41
2024-01-10T00:24:30.170Z,-6.40
2024-01-10T00:27:02.493Z,-6.39
2024-01-10T00:29:32.583Z,-6.40
2024-01-10T00:32:03.248Z,-6.41
2024-01-10T00:34:33.178Z,-6.41
2024-01-10T00:37:02.942Z,-6.41
2024-01-10T00:39:32.679Z,-6.40
2024-01-10T00:42:05.101Z,-6.41
2024-01-10T00:44:34.872Z,-6.39
2024-01-10T00:47:04.662Z,-6.38
2024-01-10T00:49:34.556Z,-6.37
2024-01-10T00:52:04.408Z,-6.42
2024-01-10T00:54:34.253Z,-6.47
2024-01-10T00:57:07.308Z,-6.50
2024-01-10T00:59:37.142Z,-6.52
2024-01-10T01:02:04.815Z,-6.55
2024-01-10T01:04:34.628Z,-6.60
2024-01-10T01:07:04.666Z,-6.65
2024-01-10T01:09:34.624Z,-6.68
2024-01-10T01:12:07.945Z,-6.71
2024-01-10T01:14:38.279Z,-6.72
2024-01-10T01:17:08.143Z,-6.71
2024-01-10T01:19:38.008Z,-6.71
2024-01-10T01:22:07.965Z,-6.74
2024-01-10T01:24:37.856Z,-6.77
2024-01-10T01:27:10.508Z,-6.82
2024-01-10T01:29:40.304Z,-6.86
2024-01-10T01:32:10.397Z,-6.89
2024-01-10T01:34:40.335Z,-6.93
2024-01-10T01:37:10.923Z,-6.96
2024-01-10T01:39:40.787Z,-6.98
2024-01-10T01:42:13.241Z,-6.97
2024-01-10T01:44:45.611Z,-6.94
2024-01-10T01:47:15.855Z,-6.96
2024-01-10T01:49:46.675Z,-6.95
2024-01-10T01:52:16.823Z,-6.97
2024-01-10T01:54:46.739Z,-6.95
2024-01-10T01:57:19.097Z,-6.97
2024-01-10T01:59:48.904Z,-6.98
2024-01-10T02:02:19.105Z,-6.99
2024-01-10T02:04:53.554Z,-7.01
2024-01-10T02:07:24.522Z,-7.04
2024-01-10T02:09:54.841Z,-7.06
2024-01-10T02:12:28.090Z,-7.07
2024-01-10T02:14:57.939Z,-7.07
2024-01-10T02:17:28.517Z,-7.10
2024-01-10T02:20:12.113Z,-7.17
2024-01-10T02:22:42.092Z,-7.23
2024-01-10T02:25:14.937Z,-7.29
2024-01-10T02:27:45.358Z,-7.36
2024-01-10T02:30:15.771Z,-7.42
2024-01-10T02:32:45.647Z,-7.50
2024-01-10T02:35:15.831Z,-7.57
2024-01-10T02:37:46.232Z,-7.64
2024-01-10T02:40:18.993Z,-7.68
2024-01-10T02:42:49.012Z,-7.74
2024-01-10T02:45:18.991Z,-7.81
2024-01-10T02:47:49.408Z,-7.88
2024-01-10T02:50:19.533Z,-7.95
2024-01-10T02:52:49.504Z,-8.01
2024-01-10T02:55:22.107Z,-8.09
2024-01-10T02:57:52.012Z,-8.18
2024-01-10T03:00:22.178Z,-8.23
2024-01-10T03:02:51.945Z,-8.29
2024-01-10T03:05:21.903Z,-8.33
2024-01-10T03:07:51.868Z,-8.37
2024-01-10T03:10:24.385Z,-8.40
2024-01-10T03:12:54.495Z,-8.44
2024-01-10T03:15:24.580Z,-8.46
2024-01-10T03:17:54.448Z,-8.48
2024-01-10T03:20:24.407Z,-8.49
2024-01-10T03:22:54.299Z,-8.49
2024-01-10T03:25:26.799Z,-8.52
2024-01-10T03:27:56.763Z,-8.55
2024-01-10T03:30:26.866Z,-8.57
2024-01-10T03:32:56.955Z,-8.60
2024-01-10T03:35:27.074Z,-8.62
2024-01-10T03:37:57.026Z,-8.62
2024-01-10T03:40:29.434Z,-8.62
2024-01-10T03:42:59.509Z,-8.64
2024-01-10T03:45:30.027Z,-8.62
2024-01-10T03:47:59.849Z,-8.62
2024-01-10T03:50:29.732Z,-8.60
2024-01-10T03:52:59.607Z,-8.56
2024-01-10T03:55:33.921Z,-8.53
2024-01-10T03:58:03.889Z,-8.53
2024-01-10T04:00:33.742Z,-8.52
2024-01-10T04:03:04.888Z,-8.45
2024-01-10T04:05:34.841Z,-8.41
2024-01-10T04:08:05.238Z,-8.34
2024-01-10T04:10:37.777Z,-8.29
2024-01-10T04:13:07.997Z,-8.24
2024-01-10T04:15:38.679Z,-8.22
2024-01-10T04:18:09.094Z,-8.18
2024-01-10T04:20:39.088Z,-8.15
2024-01-10T04:23:09.126Z,-8.06
2024-01-10T04:25:41.667Z,-8.01
2024-01-10T04:28:11.495Z,-7.95
2024-01-10T04:30:41.336Z,-7.88
2024-01-10T04:33:13.968Z,-7.83
2024-01-10T04:35:43.758Z,-7.74
2024-01-10T04:38:13.561Z,-7.63
2024-01-10T04:40:48.214Z,-7.55
2024-01-10T04:43:18.106Z,-7.42
2024-01-10T04:45:47.948Z,-7.32
2024-01-10T04:48:17.851Z,-7.18
2024-01-10T04:50:50.489Z,-7.03
2024-01-10T04:53:20.365Z,-6.89
2024-01-10T04:55:52.896Z,-6.79
2024-01-10T04:58:22.671Z,-6.69
2024-01-10T05:00:52.559Z,-6.59
2024-01-10T05:03:22.815Z,-6.51
2024-01-10T05:05:52.840Z,-6.45
2024-01-10T05:08:23.248Z,-6.41
2024-01-10T05:10:55.991Z,-6.36
2024-01-10T05:13:26.333Z,-6.30
2024-01-10T05:15:56.680Z,-6.24
2024-01-10T05:18:26.749Z,-6.19
2024-01-10T05:20:56.586Z,-6.13
2024-01-10T05:23:26.505Z,-6.09
2024-01-10T05:26:02.200Z,-6.07
2024-01-10T05:28:31.996Z,-6.06
2024-01-10T05:31:03.325Z,-6.03
2024-01-10T05:33:33.337Z,-6.00
2024-01-10T05:36:04.062Z,-6.00
2024-01-10T05:38:38.437Z,-5.99
2024-01-10T05:41:11.269Z,-5.99
2024-01-10T05:43:42.142Z,-5.99
2024-01-10T05:46:12.063Z,-6.00
2024-01-10T05:48:42.981Z,-6.01
2024-01-10T05:51:13.544Z,-6.03
2024-01-10T05:53:43.444Z,-6.03
2024-01-10T05:56:18.122Z,-6.02
2024-01-10T05:58:48.332Z,-6.02
2024-01-10T06:01:18.296Z,-6.04
2024-01-10T06:03:48.365Z,-6.06
2024-01-10T06:06:19.667Z,-6.05
2024-01-10T06:08:52.320Z,-6.09
2024-01-10T06:11:25.019Z,-6.12
2024-01-10T06:13:57.596Z,-6.16
2024-01-10T06:16:28.331Z,-6.17
2024-01-10T06:19:01.201Z,-6.15
2024-01-10T06:21:31.164Z,-6.12
2024-01-10T06:24:01.027Z,-6.09
2024-01-10T06:26:33.755Z,-6.08
2024-01-10T06:29:03.818Z,-6.09
2024-01-10T06:31:33.825Z,-6.08
2024-01-10T06:34:03.661Z,-6.05
2024-01-10T06:36:33.467Z,-6.00
2024-01-10T06:39:03.248Z,-5.95
2024-01-10T06:41:35.803Z,-5.89
2024-01-10T06:44:06.941Z,-5.85
2024-01-10T06:46:36.992Z,-5.84
2024-01-10T06:49:08.712Z,-5.81
2024-01-10T06:51:43.740Z,-5.81
2024-01-10T06:54:15.077Z,-5.79
2024-01-10T06:56:48.210Z,-5.77
2024-01-10T06:59:18.649Z,-5.75
2024-01-10T07:01:48.631Z,-5.73
2024-01-10T07:04:20.604Z,-5.69
2024-01-10T07:06:51.464Z,-5.67
2024-01-10T07:09:21.764Z,-5.66
2024-01-10T07:11:54.366Z,-5.63
2024-01-10T07:14:24.358Z,-5.60
2024-01-10T07:16:57.395Z,-5.60
2024-01-10T07:19:27.515Z,-5.57
2024-01-10T07:22:02.116Z,-5.55
2024-01-10T07:24:35.759Z,-5.51
2024-01-10T07:27:09.147Z,-5.49
2024-01-10T07:29:39.172Z,-5.45
2024-01-10T07:32:16.183Z,-5.39
2024-01-10T07:34:46.504Z,-5.34
2024-01-10T07:37:22.383Z,-5.28
2024-01-10T07:39:52.764Z,-5.22
2024-01-10T07:42:25.986Z,-5.20
2024-01-10T07:44:57.002Z,-5.20
2024-01-10T07:47:29.486Z,-5.20
2024-01-10T07:49:59.755Z,-5.20
2024-01-10T07:52:30.127Z,-5.15
2024-01-10T07:55:00.209Z,-5.12
2024-01-10T07:57:33.749Z,-5.10
2024-01-10T08:00:05.368Z,-5.07
2024-01-10T08:02:40.508Z,-5.05
2024-01-10T08:05:12.308Z,-5.02
2024-01-10T08:07:42.319Z,-5.01
2024-01-10T08:10:20.215Z,-5.00
2024-01-10T08:12:54.013Z,-4.98
2024-01-10T08:15:24.097Z,-4.97
2024-01-10T08:17:54.129Z,-4.94
2024-01-10T08:20:24.152Z,-4.90
2024-01-10T08:22:54.901Z,-4.87
2024-01-10T08:25:24.841Z,-4.82
2024-01-10T08:27:58.926Z,-4.75
2024-01-10T08:30:28.562Z,-4.61
2024-01-10T08:32:58.597Z,-4.45
2024-01-10T08:35:29.176Z,-4.31
2024-01-10T08:37:59.494Z,-4.12
2024-01-10T08:40:29.425Z,-3.89
2024-01-10T08:43:02.636Z,-3.53
2024-01-10T08:45:33.576Z,-3.12
2024-01-10T08:48:06.269Z,-2.74
2024-01-10T08:50:36.558Z,-2.38
2024-01-10T08:53:07.351Z,-2.03
2024-01-10T08:55:38.518Z,-1.67
2024-01-10T08:58:11.285Z,-1.38
2024-01-10T09:00:41.625Z,-1.21
2024-01-10T09:03:11.579Z,-1.17
2024-01-10T09:05:43.478Z,-1.26
2024-01-10T09:08:17.335Z,-1.29
2024-01-10T09:10:47.229Z,-1.21
2024-01-10T09:13:20.036Z,-1.04
2024-01-10T09:15:49.861Z,-0.91
2024-01-10T09:18:20.004Z,-0.75
2024-01-10T09:20:49.880Z,-0.66
2024-01-10T09:23:20.224Z,-0.56
2024-01-10T09:25:50.086Z,-0.28
2024-01-10T09:28:22.534Z,0.24
2024-01-10T09:30:53.021Z,0.79
2024-01-10T09:33:24.060Z,1.39
2024-01-10T09:35:53.923Z,1.96
2024-01-10T09:38:24.030Z,2.41
2024-01-10T09:40:53.882Z,2.86
2024-01-10T09:43:26.271Z,3.34
2024-01-10T09:45:57.402Z,3.90
2024-01-10T09:48:27.452Z,4.49
2024-01-10T09:50:57.395Z,4.94
2024-01-10T09:53:28.767Z,5.37
2024-01-10T09:56:02.497Z,5.78
2024-01-10T09:58:40.440Z,6.17
2024-01-10T10:01:10.749Z,6.43
2024-01-10T10:03:42.088Z,6.58
2024-01-10T10:06:15.081Z,6.65
2024-01-10T10:08:46.026Z,6.68
2024-01-10T10:11:16.454Z,6.69
2024-01-10T10:13:48.893Z,6.63
2024-01-10T10:16:29.440Z,6.42
2024-01-10T10:18:59.996Z,6.07
2024-01-10T10:21:31.909Z,5.67
2024-01-10T10:24:04.181Z,5.21
2024-01-10T10:26:36.953Z,4.78
2024-01-10T10:29:09.412Z,4.38
2024-01-10T10:31:40.016Z,4.01
2024-01-10T10:34:10.046Z,3.60
2024-01-10T10:36:40.070Z,3.20
2024-01-10T10:39:14.810Z,2.82
2024-01-10T10:41:45.294Z,2.47
2024-01-10T10:44:22.222Z,2.17
2024-01-10T10:47:05.506Z,1.92
2024-01-10T10:49:50.797Z,1.63
2024-01-10T10:52:21.175Z,1.42
2024-01-10T10:54:52.195Z,1.24
2024-01-10T10:57:22.321Z,1.07
2024-01-10T10:59:56.184Z,0.92
2024-01-10T11:02:31.266Z,0.77
2024-01-10T11:05:02.631Z,0.67
2024-01-10T11:07:32.786Z,0.61
2024-01-10T11:10:03.904Z,0.58
2024-01-10T11:12:47.301Z,0.54
2024-01-10T11:15:25.476Z,0.53
2024-01-10T11:18:11.060Z,0.55
2024-01-10T11:20:55.180Z,0.57
2024-01-10T11:23:41.270Z,0.57
2024-01-10T11:26:12.134Z,0.56
2024-01-10T11:28:42.135Z,0.55
2024-01-10T11:31:14.858Z,0.54
2024-01-10T11:34:03.637Z,0.51
2024-01-10T11:37:03.767Z,0.47
2024-01-10T12:22:20.629Z,-0.36
2024-01-10T12:24:53.772Z,-0.39
2024-01-10T12:27:27.192Z,-0.41
2024-01-10T12:29:57.586Z,-0.41
2024-01-10T12:32:27.540Z,-0.41
2024-01-10T12:35:04.706Z,-0.39
2024-01-10T12:37:35.071Z,-0.39
2024-01-10T12:40:09.746Z,-0.38
2024-01-10T12:42:44.489Z,-0.38
2024-01-10T12:45:24.809Z,-0.39
2024-01-10T12:47:57.877Z,-0.42
2024-01-10T12:50:28.970Z,-0.40
2024-01-10T12:52:59.343Z,-0.39
2024-01-10T12:55:30.471Z,-0.37
2024-01-10T12:58:08.098Z,-0.35
2024-01-10T13:00:38.992Z,-0.29
2024-01-10T13:03:08.983Z,-0.23
2024-01-10T13:05:39.056Z,-0.16
2024-01-10T13:08:09.318Z,-0.08
2024-01-10T13:10:39.331Z,-0.01
2024-01-10T13:13:11.863Z,0.08
2024-01-10T13:15:41.971Z,0.14
2024-01-10T13:18:12.512Z,0.17
2024-01-10T13:20:42.503Z,0.21
2024-01-10T13:23:12.583Z,0.26
2024-01-10T13:25:42.873Z,0.31
2024-01-10T13:28:16.611Z,0.40
2024-01-10T13:30:47.050Z,0.47
2024-01-10T13:33:17.485Z,0.52
2024-01-10T13:35:47.651Z,0.51
2024-01-10T13:38:19.948Z,0.50
2024-01-10T13:40:50.005Z,0.47
2024-01-10T13:43:22.513Z,0.45
2024-01-10T13:45:53.602Z,0.41
2024-01-10T13:51:16.881Z,0.41
2024-01-10T13:53:55.670Z,0.41
2024-01-10T13:56:25.980Z,0.45
2024-01-10T13:59:01.663Z,0.54
2024-01-10T14:01:35.099Z,0.64
2024-01-10T14:04:11.370Z,0.74
2024-01-10T14:06:48.824Z,0.82
2024-01-10T14:09:21.868Z,0.86
2024-01-10T14:11:52.646Z,0.84
2024-01-10T14:14:26.431Z,0.87
2024-01-10T14:16:56.924Z,0.92
2024-01-10T14:19:27.460Z,0.96
2024-01-10T14:21:57.232Z,1.00
2024-01-10T14:24:29.073Z,1.00
2024-01-10T14:26:59.886Z,1.03
2024-01-10T14:29:34.932Z,1.02
2024-01-10T14:32:17.046Z,0.97
2024-01-10T14:34:48.458Z,0.92
2024-01-10T14:37:18.685Z,0.86
2024-01-10T14:39:48.679Z,0.77
2024-01-10T14:42:21.063Z,0.69
2024-01-10T14:44:53.503Z,0.54
2024-01-10T14:47:24.090Z,0.38
2024-01-10T14:49:54.099Z,0.26
2024-01-10T14:52:23.994Z,0.15
2024-01-10T14:54:53.822Z,0.06
2024-01-10T14:57:23.605Z,0.01
2024-01-10T14:59:56.331Z,-0.08
2024-01-10T15:02:26.355Z,-0.17
2024-01-10T15:04:56.648Z,-0.25
2024-01-10T15:07:27.656Z,-0.32
2024-01-10T15:09:59.860Z,-0.41
2024-01-10T15:12:30.517Z,-0.51
2024-01-10T15:15:03.536Z,-0.59
2024-01-10T15:17:33.499Z,-0.65
2024-01-10T15:20:03.741Z,-0.71
2024-01-10T15:22:34.125Z,-0.76
2024-01-10T15:25:03.941Z,-0.81
2024-01-10T15:27:34.129Z,-0.85
2024-01-10T15:30:15.696Z,-0.90
2024-01-10T15:32:47.477Z,-0.95
2024-01-10T15:35:17.796Z,-0.99
2024-01-10T15:37:48.355Z,-1.05
2024-01-10T15:40:18.218Z,-1.10
2024-01-10T15:42:48.131Z,-1.14
2024-01-10T15:45:20.733Z,-1.21
2024-01-10T15:47:50.657Z,-1.27
2024-01-10T15:50:21.164Z,-1.34
2024-01-10T15:52:52.454Z,-1.40
2024-01-10T15:55:22.672Z,-1.46
2024-01-10T15:57:52.465Z,-1.53
2024-01-10T16:00:25.028Z,-1.60
2024-01-10T16:02:54.956Z,-1.66
2024-01-10T16:05:26.021Z,-1.70
2024-01-10T16:07:56.744Z,-1.74
2024-01-10T16:10:29.716Z,-1.79
2024-01-10T16:12:59.715Z,-1.81
2024-01-10T16:15:32.096Z,-1.84
2024-01-10T16:18:02.002Z,-1.87
2024-01-10T16:20:31.885Z,-1.90
2024-01-10T16:23:02.194Z,-1.94
2024-01-10T16:25:32.758Z,-1.97
2024-01-10T16:28:02.670Z,-2.01
2024-01-10T16:30:35.109Z,-2.04
2024-01-10T16:33:05.333Z,-2.06
2024-01-10T16:35:35.686Z,-2.05
2024-01-10T16:38:05.872Z,-2.09
2024-01-10T16:40:35.971Z,-2.14
2024-01-10T16:43:07.109Z,-2.18
2024-01-10T16:45:39.715Z,-2.21
2024-01-10T16:48:11.206Z,-2.23
2024-01-10T16:50:42.790Z,-2.26
2024-01-10T16:53:12.920Z,-2.30
2024-01-10T16:55:49.573Z,-2.33
2024-01-10T16:58:22.573Z,-2.33
2024-01-10T17:00:58.602Z,-2.33
2024-01-10T17:03:28.698Z,-2.35
2024-01-10T17:05:58.981Z,-2.37
2024-01-10T17:08:31.374Z,-2.42
2024-01-10T17:11:06.479Z,-2.48
2024-01-10T17:13:37.401Z,-2.51
2024-01-10T17:16:10.982Z,-2.55
2024-01-10T17:21:28.244Z,-2.64
2024-01-10T17:23:59.698Z,-2.68
2024-01-10T17:26:30.984Z,-2.69
2024-01-10T17:29:21.173Z,-2.66
2024-01-10T17:31:53.977Z,-2.64
2024-01-10T17:34:24.212Z,-2.66
2024-01-10T17:36:54.240Z,-2.71
2024-01-10T17:39:25.581Z,-2.75
2024-01-10T17:41:55.382Z,-2.79
2024-01-10T17:44:25.358Z,-2.85
2024-01-10T17:46:57.920Z,-2.90
2024-01-10T17:49:28.025Z,-2.95
2024-01-10T17:51:58.671Z,-2.99
2024-01-10T17:54:29.247Z,-3.02
2024-01-10T17:57:00.740Z,-3.06
2024-01-10T17:59:30.922Z,-3.10
2024-01-10T18:02:03.699Z,-3.14
2024-01-10T18:04:34.053Z,-3.16
2024-01-10T18:07:04.563Z,-3.17
2024-01-10T18:09:34.980Z,-3.21
2024-01-10T18:12:05.368Z,-3.27
2024-01-10T18:14:35.325Z,-3.29
2024-01-10T18:17:08.258Z,-3.27
2024-01-10T18:19:42.460Z,-3.26
2024-01-10T18:22:17.515Z,-3.30
2024-01-10T18:24:47.584Z,-3.35
2024-01-10T18:27:23.306Z,-3.41
2024-01-10T18:29:58.410Z,-3.49
2024-01-10T18:32:32.053Z,-3.55
2024-01-10T18:35:05.510Z,-3.58
2024-01-10T18:37:37.067Z,-3.58
2024-01-10T18:40:10.479Z,-3.56
2024-01-10T18:42:40.607Z,-3.54
2024-01-10T18:45:13.888Z,-3.52
2024-01-10T18:47:50.521Z,-3.52
2024-01-10T18:50:20.907Z,-3.51
2024-01-10T18:52:51.090Z,-3.51
2024-01-10T18:55:22.068Z,-3.49
2024-01-10T18:57:54.346Z,-3.50
2024-01-10T19:00:28.384Z,-3.52
2024-01-10T19:03:01.902Z,-3.56
2024-01-10T19:05:35.071Z,-3.62
2024-01-10T19:08:08.207Z,-3.69
2024-01-10T19:10:42.088Z,-3.71
2024-01-10T19:13:11.928Z,-3.73
2024-01-10T19:15:42.084Z,-3.76
2024-01-10T19:18:17.336Z,-3.78
2024-01-10T19:20:47.646Z,-3.77
2024-01-10T19:23:19.926Z,-3.77
2024-01-10T19:25:50.300Z,-3.77
2024-01-10T19:28:23.292Z,-3.81
2024-01-10T19:30:57.204Z,-3.84
2024-01-10T19:33:30.397Z,-3.84
2024-01-10T19:36:00.577Z,-3.82
2024-01-10T19:38:31.035Z,-3.79
2024-01-10T19:41:03.712Z,-3.77
2024-01-10T19:43:33.717Z,-3.75
2024-01-10T19:46:03.789Z,-3.76
2024-01-10T19:48:36.563Z,-3.80
2024-01-10T19:51:06.639Z,-3.84
2024-01-10T19:53:36.672Z,-3.90
2024-01-10T19:56:06.696Z,-3.94
2024-01-10T19:58:38.744Z,-3.95
2024-01-10T20:01:08.672Z,-3.98
2024-01-10T20:03:41.570Z,-4.01
2024-01-10T20:06:11.857Z,-4.04
2024-01-10T20:08:41.724Z,-4.09
2024-01-10T20:11:11.816Z,-4.15
2024-01-10T20:13:42.549Z,-4.21
2024-01-10T20:16:12.480Z,-4.22
2024-01-10T20:18:44.952Z,-4.20
2024-01-10T20:21:18.036Z,-4.18
2024-01-10T20:23:49.105Z,-4.15
2024-01-10T20:26:19.292Z,-4.14
2024-01-10T20:28:49.370Z,-4.15
2024-01-10T20:31:21.388Z,-4.14
2024-01-10T20:33:54.313Z,-4.14
2024-01-10T20:36:24.279Z,-4.13
2024-01-10T20:38:54.111Z,-4.14
2024-01-10T20:41:23.911Z,-4.15
2024-01-10T20:43:53.778Z,-4.17
2024-01-10T20:46:23.590Z,-4.20
2024-01-10T20:48:58.131Z,-4.22
2024-01-10T20:51:27.920Z,-4.23
2024-01-10T20:53:57.881Z,-4.29
2024-01-10T20:56:27.909Z,-4.34
2024-01-10T20:58:58.126Z,-4.42
2024-01-10T21:01:28.551Z,-4.48
2024-01-10T21:04:01.071Z,-4.50
2024-01-10T21:06:30.878Z,-4.52
2024-01-10T21:09:00.962Z,-4.54
2024-01-10T21:11:30.873Z,-4.56
2024-01-10T21:14:03.618Z,-4.62
2024-01-10T21:16:33.477Z,-4.68
2024-01-10T21:19:13.637Z,-4.73
2024-01-10T21:21:43.694Z,-4.76
2024-01-10T21:24:13.527Z,-4.78
2024-01-10T21:26:44.944Z,-4.80
2024-01-10T21:29:15.978Z,-4.83
2024-01-10T21:31:45.877Z,-4.87
2024-01-10T21:34:18.479Z,-4.89
2024-01-10T21:36:48.325Z,-4.90
2024-01-10T21:39:18.307Z,-4.91
2024-01-10T21:41:48.338Z,-4.91
2024-01-10T21:44:18.412Z,-4.92
2024-01-10T21:46:48.216Z,-4.93
2024-01-10T21:49:20.867Z,-4.93
2024-01-10T21:51:50.905Z,-4.89
2024-01-10T21:54:21.165Z,-4.89
2024-01-10T21:56:51.020Z,-4.91
2024-01-10T21:59:21.002Z,-4.95
2024-01-10T22:01:51.693Z,-5.00
2024-01-10T22:04:24.267Z,-5.02
2024-01-10T22:06:54.262Z,-5.05
2024-01-10T22:09:24.129Z,-5.10
2024-01-10T22:11:54.013Z,-5.15
2024-01-10T22:14:24.359Z,-5.18
2024-01-10T22:16:54.238Z,-5.22
2024-01-10T22:19:26.753Z,-5.23
2024-01-10T22:21:56.966Z,-5.24
2024-01-10T22:24:27.355Z,-5.28
2024-01-10T22:26:57.279Z,-5.28
2024-01-10T22:29:29.209Z,-5.29
2024-01-10T22:31:59.119Z,-5.32
2024-01-10T22:34:32.314Z,-5.34
2024-01-10T22:37:02.177Z,-5.37
2024-01-10T22:39:34.172Z,-5.39
2024-01-10T22:42:03.995Z,-5.40
2024-01-10T22:44:33.944Z,-5.42
2024-01-10T22:47:03.970Z,-5.45
2024-01-10T22:49:36.861Z,-5.45
2024-01-10T22:52:07.059Z,-5.47
2024-01-10T22:54:37.368Z,-5.46
2024-01-10T22:57:07.888Z,-5.43
2024-01-10T22:59:38.748Z,-5.44
2024-01-10T23:02:09.060Z,-5.45
2024-01-10T23:04:41.510Z,-5.45
2024-01-10T23:07:11.385Z,-5.43
2024-01-10T23:09:41.163Z,-5.42
2024-01-10T23:12:11.794Z,-5.41
2024-01-10T23:14:41.826Z,-5.43
2024-01-10T23:17:11.774Z,-5.41
2024-01-10T23:19:44.580Z,-5.41
2024-01-10T23:22:14.427Z,-5.41
2024-01-10T23:24:44.290Z,-5.44
2024-01-10T23:27:14.350Z,-5.45
2024-01-10T23:29:44.431Z,-5.46
2024-01-10T23:32:14.394Z,-5.45
2024-01-10T23:34:46.986Z,-5.44
2024-01-10T23:37:18.481Z,-5.46
2024-01-10T23:39:48.299Z,-5.46
2024-01-10T23:42:18.296Z,-5.48
2024-01-10T23:44:48.290Z,-5.50
2024-01-10T23:47:18.212Z,-5.52
2024-01-10T23:49:51.320Z,-5.53
2024-01-10T23:52:21.246Z,-5.56
2024-01-10T23:54:52.225Z,-5.58
2024-01-10T23:57:22.346Z,-5.62
2024-01-10T23:59:52.233Z,-5.64
